Time;durP1;ratioP1;P1;durP2;ratioP2;P2;SDS_P1;SDS_P2;PMS_P1;PMS_P2;Temp;Humidity;BMP_temperature;BMP_pressure;BME280_temperature;BME280_humidity;BME280_pressure;Samples;Min_cycle;Max_cycle;Signal;HPM_P1;HPM_P2
2024/03/19 00:01:35;;;;;;;3.17;2.00;;;;;;;19.65;53.58;97597.91;5008951;28;20216;-27
2024/03/19 00:04:00;;;;;;;3.90;1.90;;;;;;;19.65;53.64;97600.47;5002396;28;20237;-26
2024/03/19 00:06:26;;;;;;;2.23;2.03;;;;;;;19.66;53.56;97594.56;5006710;28;20293;-27
2024/03/19 00:08:51;;;;;;;2.80;2.37;;;;;;;19.67;53.75;97591.22;5000970;28;20245;-29
2024/03/19 00:11:18;;;;;;;2.70;2.20;;;;;;;19.67;53.61;97597.19;5002263;28;20344;-27
2024/03/19 00:13:44;;;;;;;2.53;2.33;;;;;;;19.67;53.59;97596.31;5007977;28;20233;-28
2024/03/19 00:16:10;;;;;;;2.13;1.80;;;;;;;19.67;53.58;97596.31;4999340;28;20323;-34
2024/03/19 00:18:36;;;;;;;2.53;2.33;;;;;;;19.67;53.44;97606.50;5002459;28;20194;-25
2024/03/19 00:21:02;;;;;;;2.87;2.37;;;;;;;19.66;53.93;97592.88;5002240;28;20268;-27
2024/03/19 00:23:28;;;;;;;3.37;2.50;;;;;;;19.66;53.64;97597.97;5005617;28;20221;-25
2024/03/19 00:25:53;;;;;;;2.90;2.30;;;;;;;19.66;53.82;97599.69;5001199;28;20232;-27
2024/03/19 00:28:19;;;;;;;2.40;2.20;;;;;;;19.65;53.91;97591.16;5010356;28;20226;-27
2024/03/19 00:30:44;;;;;;;2.47;2.17;;;;;;;19.66;53.97;97594.56;5003909;28;20218;-27
2024/03/19 00:33:10;;;;;;;2.70;2.23;;;;;;;19.66;53.82;97597.13;5004900;28;20233;-25
2024/03/19 00:35:44;;;;;;;2.33;2.13;;;;;;;19.65;53.90;97593.69;4998054;28;20205;-26
2024/03/19 00:38:10;;;;;;;2.40;2.20;;;;;;;19.64;53.90;97596.19;5012938;28;20209;-27
2024/03/19 00:40:35;;;;;;;3.37;2.40;;;;;;;19.63;53.61;97595.31;5002087;28;20217;-28
2024/03/19 00:43:04;;;;;;;3.30;2.20;;;;;;;19.64;53.82;97597.06;4996981;28;20234;-29
2024/03/19 00:45:30;;;;;;;2.47;2.27;;;;;;;19.57;53.69;97582.34;4997770;28;20209;-28
2024/03/19 00:47:55;;;;;;;2.63;2.33;;;;;;;19.65;53.97;97593.69;5002967;28;20224;-32
2024/03/19 00:50:21;;;;;;;2.30;2.10;;;;;;;19.66;53.89;97592.88;4997557;28;20550;-26
2024/03/19 00:52:47;;;;;;;3.40;2.13;;;;;;;19.67;53.91;97593.75;5000809;28;20268;-27
2024/03/19 00:55:12;;;;;;;2.87;2.17;;;;;;;19.66;54.02;97597.97;5003667;28;20206;-26
2024/03/19 00:57:38;;;;;;;4.03;2.00;;;;;;;19.67;53.81;97596.31;5001963;28;20214;-30
2024/03/19 01:00:10;;;;;;;2.60;2.40;;;;;;;19.66;54.06;97595.41;5003791;28;20202;-27
2024/03/19 01:02:38;;;;;;;3.47;2.07;;;;;;;19.67;53.87;97593.75;4982457;28;20206;-28
2024/03/19 01:05:04;;;;;;;3.00;2.30;;;;;;;19.65;53.99;97601.34;5002815;28;20708;-26
2024/03/19 01:07:30;;;;;;;3.13;2.33;;;;;;;19.67;53.96;97593.75;4999810;28;20217;-27
2024/03/19 01:09:56;;;;;;;3.43;2.43;;;;;;;19.65;53.93;97592.81;5007047;28;20229;-27
2024/03/19 01:12:22;;;;;;;2.97;2.40;;;;;;;19.66;54.18;97595.41;5000822;28;20209;-26
2024/03/19 01:14:48;;;;;;;3.03;2.30;;;;;;;19.65;53.88;97588.59;4999830;28;20237;-27
2024/03/19 01:17:13;;;;;;;2.70;2.50;;;;;;;19.65;54.32;97596.25;4993110;28;20218;-28
2024/03/19 01:19:39;;;;;;;2.47;2.27;;;;;;;19.64;54.12;97591.97;5003426;28;20280;-27
2024/03/19 01:22:06;;;;;;;2.33;2.13;;;;;;;19.63;53.89;97590.22;5009514;28;20214;-27
2024/03/19 01:24:33;;;;;;;2.30;2.10;;;;;;;19.64;53.98;97584.31;5001480;28;20237;-30
2024/03/19 01:26:58;;;;;;;2.80;2.50;;;;;;;19.64;54.07;97581.78;5009072;28;20574;-28
2024/03/19 01:29:24;;;;;;;3.57;1.80;;;;;;;19.65;54.03;97586.06;4992087;28;20232;-27
2024/03/19 01:31:49;;;;;;;3.00;2.40;;;;;;;19.66;54.08;97585.22;5003401;28;20211;-27
2024/03/19 01:34:15;;;;;;;3.10;2.37;;;;;;;19.66;53.91;97585.22;4998606;28;20320;-30
2024/03/19 01:36:41;;;;;;;3.00;2.27;;;;;;;19.67;53.89;97591.22;5005745;28;20206;-26
2024/03/19 01:39:09;;;;;;;2.47;2.27;;;;;;;19.66;53.88;97587.78;5008138;28;20198;-30
2024/03/19 01:41:35;;;;;;;2.63;2.13;;;;;;;19.66;54.00;97581.81;5004923;28;20214;-29
2024/03/19 01:44:01;;;;;;;2.43;2.23;;;;;;;19.66;53.97;97582.69;5003582;28;20234;-33
2024/03/19 01:46:27;;;;;;;2.50;2.30;;;;;;;19.64;54.17;97591.09;4996403;28;20217;-29
2024/03/19 01:48:56;;;;;;;2.87;2.57;;;;;;;19.66;54.18;97597.13;5002868;28;20226;-27
2024/03/19 01:51:21;;;;;;;2.40;2.20;;;;;;;19.66;53.88;97599.69;5002202;28;22504;-31
2024/03/19 01:53:48;;;;;;;2.50;2.30;;;;;;;19.66;54.11;97597.97;4973554;28;20218;-26
2024/03/19 01:56:15;;;;;;;2.63;2.20;;;;;;;19.66;54.00;97607.31;4992077;28;20587;-35
2024/03/19 01:58:41;;;;;;;3.57;2.50;;;;;;;19.66;54.03;97617.53;5001925;28;20225;-25
2024/03/19 02:01:06;;;;;;;2.63;2.33;;;;;;;19.65;54.09;97598.78;4989707;28;20201;-27
2024/03/19 02:03:32;;;;;;;2.60;2.40;;;;;;;19.63;54.02;97604.66;5000469;28;20360;-29
2024/03/19 02:05:58;;;;;;;2.73;2.30;;;;;;;19.64;54.09;97612.38;4986129;28;20219;-27
2024/03/19 02:08:23;;;;;;;2.80;2.30;;;;;;;19.65;54.08;97600.47;5001548;28;20756;-27
2024/03/19 02:10:49;;;;;;;2.80;2.47;;;;;;;19.64;54.27;97598.75;5006457;28;20203;-29
2024/03/19 02:13:15;;;;;;;2.73;2.40;;;;;;;19.66;53.87;97595.41;5004876;28;20228;-28
2024/03/19 02:15:40;;;;;;;2.43;2.23;;;;;;;19.67;53.94;97603.94;5001316;28;20686;-25
2024/03/19 02:18:06;;;;;;;2.63;2.43;;;;;;;19.66;53.94;97592.03;5001612;28;20577;-26
2024/03/19 02:20:32;;;;;;;2.40;2.20;;;;;;;19.66;53.95;97594.56;5009040;28;20209;-27
2024/03/19 02:22:57;;;;;;;2.40;2.20;;;;;;;19.67;53.89;97596.31;5002723;28;20212;-28
2024/03/19 02:25:23;;;;;;;2.90;2.33;;;;;;;19.67;54.05;97602.28;4992467;28;20198;-28
2024/03/19 02:27:49;;;;;;;2.67;2.30;;;;;;;19.67;53.95;97601.41;5012644;28;20206;-26
2024/03/19 02:30:14;;;;;;;2.30;2.10;;;;;;;19.66;53.96;97599.69;5003903;28;20741;-30
2024/03/19 02:32:40;;;;;;;2.83;2.23;;;;;;;19.66;54.09;97599.69;5001167;28;20206;-26
2024/03/19 02:35:06;;;;;;;3.03;2.20;;;;;;;19.66;54.04;97595.41;5000508;28;20207;-32
2024/03/19 02:37:32;;;;;;;2.77;2.47;;;;;;;19.65;53.94;97601.34;5011274;28;20576;-28
2024/03/19 02:40:00;;;;;;;2.47;2.27;;;;;;;19.65;53.99;97593.69;5006779;28;20205;-31
2024/03/19 02:42:25;;;;;;;2.83;2.40;;;;;;;19.66;54.10;97592.03;5006318;28;20206;-26
2024/03/19 02:44:51;;;;;;;2.67;2.43;;;;;;;19.64;54.00;97586.00;5008613;28;20229;-26
2024/03/19 02:47:16;;;;;;;2.17;1.97;;;;;;;19.63;54.10;97595.31;5002358;28;20203;-26
2024/03/19 02:49:42;;;;;;;4.20;2.47;;;;;;;19.64;54.14;97591.97;5000127;28;20225;-26
2024/03/19 02:52:10;;;;;;;4.80;2.60;;;;;;;19.64;53.96;97594.53;5007611;28;20243;-29
2024/03/19 02:54:36;;;;;;;3.13;2.30;;;;;;;19.63;54.02;97592.75;5008365;28;20230;-27
2024/03/19 02:57:02;;;;;;;3.17;2.27;;;;;;;19.66;53.87;97599.69;5000250;28;20198;-27
2024/03/19 02:59:28;;;;;;;3.20;2.40;;;;;;;19.66;53.98;97600.53;5000322;28;20691;-26
2024/03/19 03:01:54;;;;;;;2.77;2.30;;;;;;;19.66;53.91;97594.56;5004520;28;20201;-28
2024/03/19 03:04:19;;;;;;;2.90;2.67;;;;;;;19.66;54.06;97590.31;4995720;28;20223;-26
2024/03/19 03:06:45;;;;;;;2.80;2.50;;;;;;;19.66;54.22;97592.03;5002037;28;20202;-27
2024/03/19 03:09:10;;;;;;;3.07;2.40;;;;;;;19.66;54.00;97594.56;5000269;28;20222;-29
2024/03/19 03:11:37;;;;;;;2.50;2.30;;;;;;;19.65;54.06;97591.16;5004591;28;20772;-27
2024/03/19 03:14:03;;;;;;;2.27;2.07;;;;;;;19.65;54.08;97596.25;5001677;28;20692;-27
2024/03/19 03:16:29;;;;;;;2.50;2.20;;;;;;;19.65;54.01;97597.91;5002533;28;20198;-26
2024/03/19 03:18:54;;;;;;;2.50;2.30;;;;;;;19.65;54.06;97601.34;4999276;28;20213;-27
2024/03/19 03:21:20;;;;;;;2.40;2.20;;;;;;;19.66;53.98;97609.88;5004990;28;20240;-26
2024/03/19 03:23:46;;;;;;;2.60;2.40;;;;;;;19.65;54.18;97608.13;5002303;28;20309;-25
2024/03/19 03:26:11;;;;;;;2.30;2.10;;;;;;;19.65;54.04;97608.13;4996064;28;20214;-28
2024/03/19 03:28:37;;;;;;;2.23;2.10;;;;;;;19.64;54.10;97604.72;5003137;28;20301;-26
2024/03/19 03:31:03;;;;;;;2.67;2.30;;;;;;;19.63;54.17;97609.75;5004536;28;20202;-27
2024/03/19 03:33:32;;;;;;;2.43;2.10;;;;;;;19.64;54.22;97607.28;4998783;28;20736;-27
2024/03/19 03:35:58;;;;;;;2.30;2.10;;;;;;;19.64;54.09;97606.38;5000841;28;20213;-27
2024/03/19 03:38:24;;;;;;;2.80;2.50;;;;;;;19.66;54.12;97607.31;4997849;28;20197;-26
2024/03/19 03:40:53;;;;;;;2.50;2.30;;;;;;;19.66;54.07;97607.31;4999982;28;20199;-27
2024/03/19 03:43:20;;;;;;;2.23;2.03;;;;;;;19.65;53.95;97615.75;5004816;28;20229;-28
2024/03/19 03:45:45;;;;;;;2.50;2.30;;;;;;;19.65;54.09;97603.00;4994604;28;20683;-26
2024/03/19 03:48:11;;;;;;;2.60;2.40;;;;;;;19.66;54.29;97605.63;5001675;28;20198;-27
2024/03/19 03:50:37;;;;;;;2.43;2.23;;;;;;;19.65;54.41;97611.53;4999534;28;20202;-32
2024/03/19 03:53:02;;;;;;;2.47;2.27;;;;;;;19.66;54.12;97612.44;5004780;28;20313;-26
2024/03/19 03:55:28;;;;;;;3.47;2.63;;;;;;;19.66;54.02;97603.06;5001290;28;20550;-26
2024/03/19 03:57:53;;;;;;;3.77;2.33;;;;;;;19.65;54.02;97608.13;5003113;28;20336;-28
2024/03/19 04:00:19;;;;;;;2.57;2.37;;;;;;;19.65;53.93;97603.00;4998013;28;20206;-28
2024/03/19 04:02:45;;;;;;;3.10;2.40;;;;;;;19.65;54.05;97603.00;4998081;28;20233;-34
2024/03/19 04:05:11;;;;;;;2.60;2.07;;;;;;;19.66;54.17;97608.16;4999673;28;20280;-27
2024/03/19 04:07:44;;;;;;;2.40;2.20;;;;;;;19.65;54.10;97606.44;4988671;28;20618;-28
2024/03/19 04:10:13;;;;;;;2.47;2.27;;;;;;;19.64;54.15;97611.47;5001214;28;20274;-27
2024/03/19 04:12:39;;;;;;;2.57;2.37;;;;;;;19.64;54.07;97609.81;4998518;28;20653;-29
2024/03/19 04:15:06;;;;;;;2.43;2.23;;;;;;;19.63;53.98;97602.97;5000740;28;20257;-32
2024/03/19 04:17:31;;;;;;;2.47;1.90;;;;;;;19.64;54.05;97604.72;5003724;28;20671;-26
2024/03/19 04:19:57;;;;;;;2.87;2.27;;;;;;;19.65;54.09;97605.56;4996883;28;20280;-27
2024/03/19 04:22:23;;;;;;;2.53;2.33;;;;;;;19.65;54.01;97606.44;4998820;28;20624;-26
2024/03/19 04:24:48;;;;;;;2.50;2.30;;;;;;;19.66;54.03;97604.78;4994569;28;20804;-26
2024/03/19 04:27:14;;;;;;;2.87;2.20;;;;;;;19.67;54.51;97606.50;5006082;28;20202;-27
2024/03/19 04:29:42;;;;;;;2.50;2.30;;;;;;;19.66;54.00;97614.97;5001094;28;20226;-26
2024/03/19 04:32:08;;;;;;;2.50;2.30;;;;;;;19.65;54.10;97613.22;4995512;28;20593;-29
2024/03/19 04:34:34;;;;;;;2.73;2.53;;;;;;;19.64;54.01;97617.47;4979110;28;20226;-27
2024/03/19 04:36:59;;;;;;;2.60;2.40;;;;;;;19.65;54.00;97628.50;4996186;28;20214;-27
2024/03/19 04:39:26;;;;;;;2.33;2.13;;;;;;;19.65;54.04;97621.75;4995253;28;20213;-27
2024/03/19 04:41:51;;;;;;;2.47;2.27;;;;;;;19.65;53.97;97631.94;4995785;28;20202;-28
2024/03/19 04:44:17;;;;;;;2.50;2.30;;;;;;;19.65;54.01;97628.50;4994212;28;20245;-27
2024/03/19 04:46:42;;;;;;;2.30;2.10;;;;;;;19.66;54.06;97633.66;5002042;28;20289;-36
2024/03/19 04:49:08;;;;;;;2.40;2.20;;;;;;;19.65;54.17;97629.38;5000433;28;20230;-26
2024/03/19 04:51:34;;;;;;;2.40;2.20;;;;;;;19.64;54.05;97625.13;4998309;28;20221;-28
2024/03/19 04:53:59;;;;;;;2.50;2.30;;;;;;;19.64;54.02;97624.22;5003952;28;20226;-28
2024/03/19 04:56:25;;;;;;;2.40;2.20;;;;;;;19.63;54.03;97630.16;5003091;28;20631;-31
2024/03/19 04:58:51;;;;;;;2.87;2.57;;;;;;;19.65;54.05;97633.59;4983101;28;20249;-26
2024/03/19 05:01:17;;;;;;;2.57;2.13;;;;;;;19.64;53.92;97626.78;5002860;28;20213;-29
2024/03/19 05:03:43;;;;;;;2.47;2.27;;;;;;;19.64;53.81;97622.56;5000538;28;20602;-26
2024/03/19 05:06:08;;;;;;;2.53;2.33;;;;;;;19.65;53.97;97625.97;4992610;28;20211;-27
2024/03/19 05:08:35;;;;;;;2.87;2.33;;;;;;;19.66;53.74;97625.16;4996477;28;20226;-29
2024/03/19 05:11:00;;;;;;;2.50;2.30;;;;;;;19.66;53.56;97632.81;5001760;28;20206;-27
2024/03/19 05:13:26;;;;;;;2.70;2.50;;;;;;;19.66;53.70;97630.28;4995494;28;20226;-33
2024/03/19 05:15:51;;;;;;;2.17;1.97;;;;;;;19.65;54.23;97631.94;4997580;28;20225;-26
2024/03/19 05:18:17;;;;;;;2.80;2.33;;;;;;;19.67;53.94;97632.00;4999152;28;20201;-27
2024/03/19 05:20:43;;;;;;;2.70;2.50;;;;;;;19.67;53.91;97634.56;4998775;28;20669;-28
2024/03/19 05:23:08;;;;;;;2.40;2.20;;;;;;;19.66;53.91;97630.28;5000057;28;20222;-28
2024/03/19 05:25:34;;;;;;;2.50;2.30;;;;;;;19.65;53.78;97629.38;5002038;28;21260;-26
2024/03/19 05:28:00;;;;;;;2.63;2.27;;;;;;;19.66;54.00;97633.66;4990879;28;20209;-26
2024/03/19 05:30:29;;;;;;;2.53;2.33;;;;;;;19.67;53.78;97630.31;4999693;28;20598;-27
2024/03/19 05:32:55;;;;;;;2.47;2.27;;;;;;;19.68;53.88;97634.59;4998383;28;20673;-30
2024/03/19 05:35:20;;;;;;;2.63;2.40;;;;;;;19.70;53.69;97635.53;4996034;28;20255;-28
2024/03/19 05:37:46;;;;;;;2.47;2.27;;;;;;;19.71;53.72;97636.38;4999056;28;20205;-27
2024/03/19 05:40:12;;;;;;;2.77;2.40;;;;;;;19.70;53.73;97640.66;4995532;28;20202;-27
2024/03/19 05:42:38;;;;;;;2.47;2.27;;;;;;;19.70;53.81;97630.44;5002553;28;20194;-30
2024/03/19 05:45:04;;;;;;;2.23;2.07;;;;;;;19.70;53.80;97634.66;5007647;28;20206;-25
2024/03/19 05:47:31;;;;;;;2.40;2.20;;;;;;;19.73;53.52;97639.88;4999555;28;20257;-29
2024/03/19 05:49:57;;;;;;;2.40;2.20;;;;;;;19.72;53.98;97636.44;5001212;28;20229;-28
2024/03/19 05:52:24;;;;;;;2.40;2.20;;;;;;;19.72;54.08;97646.66;4995350;28;20664;-27
2024/03/19 05:54:50;;;;;;;2.30;2.10;;;;;;;19.70;54.13;97643.19;5007613;28;20688;-30
2024/03/19 05:57:16;;;;;;;4.43;2.40;;;;;;;19.71;53.90;97639.81;5004389;28;20209;-26
2024/03/19 05:59:42;;;;;;;4.00;2.50;;;;;;;19.71;53.82;97649.13;5003729;28;20221;-27
2024/03/19 06:02:08;;;;;;;6.13;2.40;;;;;;;19.72;54.03;97645.81;4999569;28;20206;-26
2024/03/19 06:04:34;;;;;;;3.17;2.30;;;;;;;19.73;53.81;97650.06;4985956;28;20214;-29
2024/03/19 06:07:00;;;;;;;3.57;2.37;;;;;;;19.72;53.90;97651.75;5001605;28;20645;-27
2024/03/19 06:09:26;;;;;;;2.53;2.33;;;;;;;19.71;53.86;97662.78;5004773;28;20230;-27
2024/03/19 06:11:52;;;;;;;2.80;2.60;;;;;;;19.71;53.91;97659.34;5000492;28;20264;-27
2024/03/19 06:14:17;;;;;;;2.93;2.63;;;;;;;19.71;53.80;97656.78;5000644;28;20225;-26
2024/03/19 06:16:43;;;;;;;3.40;3.10;;;;;;;19.70;53.78;97657.63;5001520;28;20234;-28
2024/03/19 06:19:08;;;;;;;3.87;3.47;;;;;;;19.70;53.28;97663.59;4998594;28;20206;-29
2024/03/19 06:21:34;;;;;;;5.50;4.90;;;;;;;19.70;53.06;97658.50;4999618;28;20289;-26
2024/03/19 06:24:00;;;;;;;6.33;5.60;;;;;;;19.69;52.98;97656.72;4998894;28;20715;-26
2024/03/19 06:26:25;;;;;;;7.00;6.30;;;;;;;19.69;52.79;97653.34;4998333;28;20210;-27
2024/03/19 06:28:51;;;;;;;6.47;5.50;;;;;;;19.66;52.88;97656.63;4999163;28;20218;-37
2024/03/19 06:31:17;;;;;;;6.70;5.97;;;;;;;19.65;52.95;97659.97;4992764;28;20206;-27
2024/03/19 06:33:42;;;;;;;7.63;5.77;;;;;;;19.65;52.68;97661.66;4989331;28;20298;-27
2024/03/19 06:36:10;;;;;;;7.83;6.63;;;;;;;19.66;52.60;97665.97;4998707;28;20255;-27
2024/03/19 06:38:35;;;;;;;7.80;7.00;;;;;;;19.66;52.84;97671.91;5000092;28;20287;-29
2024/03/19 06:41:01;;;;;;;8.00;6.90;;;;;;;19.66;52.97;97671.91;4999477;28;20194;-26
2024/03/19 06:43:28;;;;;;;7.57;6.87;;;;;;;19.66;53.04;97674.47;4999500;28;20332;-26
2024/03/19 06:45:53;;;;;;;9.80;6.70;;;;;;;19.66;53.22;97668.50;4998729;28;20208;-28
2024/03/19 06:48:19;;;;;;;7.00;6.30;;;;;;;19.65;52.90;97675.28;4979418;28;20211;-27
2024/03/19 06:50:45;;;;;;;9.10;7.90;;;;;;;19.65;52.79;97677.84;4995880;28;20290;-27
2024/03/19 06:53:11;;;;;;;12.83;11.53;;;;;;;19.63;51.75;97684.53;4996880;28;20774;-27
2024/03/19 06:55:37;;;;;;;19.00;11.23;;;;;;;19.64;51.84;97690.53;4998993;28;20202;-26
2024/03/19 06:58:03;;;;;;;14.20;11.10;;;;;;;19.63;52.18;97686.25;4998648;28;20281;-27
2024/03/19 07:00:28;;;;;;;11.83;9.90;;;;;;;19.62;52.44;97685.38;4998638;28;20550;-33
2024/03/19 07:02:55;;;;;;;12.17;9.53;;;;;;;19.62;52.69;97685.38;4998594;28;20206;-26
2024/03/19 07:05:22;;;;;;;10.37;9.23;;;;;;;19.61;52.58;97695.50;4998669;28;20694;-35
2024/03/19 07:07:47;;;;;;;10.43;8.63;;;;;;;19.60;52.90;97697.16;4998893;28;20198;-26
2024/03/19 07:10:13;;;;;;;9.60;8.70;;;;;;;19.62;52.79;97699.78;4991049;28;20226;-28
2024/03/19 07:12:39;;;;;;;10.57;9.47;;;;;;;19.59;52.82;97692.88;4998244;28;20252;-31
2024/03/19 07:15:09;;;;;;;11.10;9.17;;;;;;;19.63;52.85;97697.28;4998726;28;20241;-29
2024/03/19 07:17:38;;;;;;;11.50;9.03;;;;;;;19.64;53.05;97701.59;5005713;28;20216;-28
2024/03/19 07:20:09;;;;;;;9.53;8.63;;;;;;;19.64;52.97;97701.59;4998720;28;20528;-27
2024/03/19 07:22:40;;;;;;;9.30;8.40;;;;;;;19.64;52.89;97710.91;4995614;28;20229;-26
2024/03/19 07:25:07;;;;;;;10.30;8.67;;;;;;;19.62;52.97;97708.31;4999173;28;20253;-28
2024/03/19 07:27:36;;;;;;;9.03;8.03;;;;;;;19.62;53.21;97705.75;5001078;28;20225;-26
2024/03/19 07:30:04;;;;;;;8.57;7.77;;;;;;;19.63;53.27;97709.19;4990998;28;20222;-27
2024/03/19 07:32:30;;;;;;;8.77;7.87;;;;;;;19.63;53.31;97711.75;4992447;28;20202;-31
2024/03/19 07:34:57;;;;;;;9.53;7.63;;;;;;;19.62;53.11;97710.84;5004627;28;20237;-28
2024/03/19 07:37:22;;;;;;;8.17;7.37;;;;;;;19.63;53.25;97707.47;4998590;28;20206;-26
2024/03/19 07:39:48;;;;;;;7.67;6.97;;;;;;;19.63;53.28;97714.28;4996502;28;20261;-32
2024/03/19 07:42:14;;;;;;;8.07;7.27;;;;;;;19.64;53.18;97719.44;4993379;28;20207;-26
2024/03/19 07:44:39;;;;;;;11.80;7.13;;;;;;;19.65;53.17;97710.97;4997983;28;20241;-27
2024/03/19 07:47:07;;;;;;;8.40;6.80;;;;;;;19.66;53.31;97719.50;4994801;28;20202;-26
2024/03/19 07:49:34;;;;;;;6.70;6.10;;;;;;;19.67;53.41;97714.47;4997610;28;20695;-26
2024/03/19 07:52:00;;;;;;;6.80;6.20;;;;;;;19.68;53.32;97718.75;4998388;28;20206;-27
2024/03/19 07:54:27;;;;;;;7.37;6.67;;;;;;;19.68;53.36;97718.75;4996982;28;20345;-27
2024/03/19 07:56:54;;;;;;;7.03;6.00;;;;;;;19.68;53.58;97713.66;4997949;28;20268;-28
2024/03/19 07:59:19;;;;;;;6.70;6.10;;;;;;;19.68;53.52;97723.84;4997928;28;20202;-26
2024/03/19 08:01:45;;;;;;;6.73;6.10;;;;;;;19.68;53.51;97722.97;4992998;28;20285;-28
2024/03/19 08:04:11;;;;;;;6.17;5.57;;;;;;;19.67;53.34;97724.66;4997996;28;20230;-27
2024/03/19 08:06:36;;;;;;;5.77;5.27;;;;;;;19.66;53.57;97727.16;4997912;28;20217;-26
2024/03/19 08:09:03;;;;;;;10.70;9.03;;;;;;;19.65;52.66;97733.03;4997781;28;20221;-26
2024/03/19 08:11:30;;;;;;;12.63;11.33;;;;;;;19.63;52.17;97734.69;4997895;28;20245;-27
2024/03/19 08:13:56;;;;;;;14.87;13.20;;;;;;;19.60;52.16;97737.97;4997242;28;20242;-27
2024/03/19 08:16:21;;;;;;;15.13;12.90;;;;;;;19.58;52.19;97738.72;4995449;28;20207;-29
2024/03/19 08:18:48;;;;;;;17.23;12.93;;;;;;;19.56;52.03;97737.78;4997010;28;20237;-27
2024/03/19 08:21:14;;;;;;;15.50;13.90;;;;;;;19.55;52.02;97741.16;4997735;28;20209;-26
2024/03/19 08:23:40;;;;;;;18.10;13.57;;;;;;;19.55;52.39;97746.25;4996973;28;20225;-28
2024/03/19 08:26:06;;;;;;;13.90;12.50;;;;;;;19.55;52.52;97746.25;4982906;28;20199;-29
2024/03/19 08:28:32;;;;;;;15.77;14.07;;;;;;;19.56;52.49;97745.41;4997992;28;20210;-27
2024/03/19 08:30:58;;;;;;;14.03;12.63;;;;;;;19.57;52.77;97747.19;4998770;28;20634;-27
2024/03/19 08:33:24;;;;;;;14.27;12.83;;;;;;;19.57;52.89;97753.13;4997959;28;20222;-26
2024/03/19 08:35:50;;;;;;;17.30;12.53;;;;;;;19.57;52.90;97750.59;4995763;28;20223;-26
2024/03/19 08:38:15;;;;;;;13.47;12.17;;;;;;;19.59;52.93;97748.09;4996798;28;20217;-29
2024/03/19 08:40:41;;;;;;;12.90;11.50;;;;;;;19.60;53.12;97752.41;4995980;28;20273;-28
2024/03/19 08:43:07;;;;;;;13.90;12.23;;;;;;;19.60;53.15;97757.50;4998578;28;20246;-29
2024/03/19 08:45:35;;;;;;;12.20;11.00;;;;;;;19.61;52.92;97769.44;5001924;28;20208;-28
2024/03/19 08:48:01;;;;;;;15.80;11.90;;;;;;;19.61;52.66;97757.56;4990147;28;20210;-28
2024/03/19 08:50:26;;;;;;;12.07;10.87;;;;;;;19.63;53.24;97757.63;4996160;28;20214;-26
2024/03/19 08:52:52;;;;;;;11.53;10.40;;;;;;;19.63;53.11;97763.56;4995574;28;20213;-26
2024/03/19 08:55:17;;;;;;;11.10;10.00;;;;;;;19.64;53.12;97756.81;4994595;28;20293;-27
2024/03/19 08:57:43;;;;;;;11.73;10.57;;;;;;;19.65;53.34;97761.97;4994240;28;20606;-27
2024/03/19 09:00:15;;;;;;;11.17;9.83;;;;;;;19.63;53.25;97747.44;4996727;28;20680;-33
2024/03/19 09:02:41;;;;;;;10.97;9.87;;;;;;;19.67;53.23;97760.38;4995311;28;20202;-30
2024/03/19 09:05:07;;;;;;;10.20;9.20;;;;;;;19.67;53.38;97760.38;4992830;28;21027;-27
2024/03/19 09:07:32;;;;;;;10.00;9.03;;;;;;;19.68;53.12;97764.66;4993313;28;20206;-27
2024/03/19 09:09:58;;;;;;;9.60;8.60;;;;;;;19.67;53.18;97768.00;4996924;28;20252;-29
2024/03/19 09:12:24;;;;;;;9.13;8.23;;;;;;;19.66;53.30;97765.41;4997242;28;20206;-26
2024/03/19 09:14:49;;;;;;;9.87;7.90;;;;;;;19.69;53.49;97770.63;5000245;28;20221;-27
2024/03/19 09:17:15;;;;;;;9.47;8.43;;;;;;;19.69;53.46;97774.03;5002140;28;20220;-27
2024/03/19 09:19:40;;;;;;;9.80;8.80;;;;;;;19.66;53.37;97765.41;4999063;28;20206;-26
2024/03/19 09:22:06;;;;;;;10.57;8.80;;;;;;;19.70;53.38;97770.69;4995411;28;20262;-27
2024/03/19 09:24:32;;;;;;;11.13;8.07;;;;;;;19.71;53.58;97777.50;4997035;28;20253;-30
2024/03/19 09:26:57;;;;;;;10.23;9.23;;;;;;;19.70;53.50;97770.69;4996982;28;20209;-28
2024/03/19 09:29:23;;;;;;;9.30;7.97;;;;;;;19.70;53.28;97773.22;4993327;28;20692;-27
2024/03/19 09:31:49;;;;;;;9.40;7.40;;;;;;;19.70;53.47;97780.00;4989752;28;20199;-27
2024/03/19 09:34:14;;;;;;;8.57;7.73;;;;;;;19.71;53.56;97781.72;4995721;28;20786;-29
2024/03/19 09:36:40;;;;;;;8.37;7.47;;;;;;;19.72;53.28;97780.94;4996665;28;20261;-27
2024/03/19 09:39:10;;;;;;;7.70;7.00;;;;;;;19.73;53.53;97780.13;4993176;28;20289;-26
2024/03/19 09:41:42;;;;;;;8.27;7.47;;;;;;;19.72;53.41;97781.78;4995996;28;20268;-26
2024/03/19 09:44:12;;;;;;;7.87;7.07;;;;;;;19.72;53.30;97769.03;4980008;28;20226;-27
2024/03/19 09:46:37;;;;;;;7.37;6.47;;;;;;;19.71;53.68;97776.63;4979874;28;20202;-29
2024/03/19 09:49:03;;;;;;;6.87;6.17;;;;;;;19.72;53.56;97774.16;4963520;28;20284;-31
2024/03/19 09:51:29;;;;;;;7.77;6.47;;;;;;;19.72;53.65;97780.94;4979413;28;20253;-28
2024/03/19 09:53:54;;;;;;;6.53;5.93;;;;;;;19.73;53.57;97781.00;4980706;28;20233;-26
2024/03/19 09:56:21;;;;;;;7.23;6.60;;;;;;;19.72;53.43;97783.50;4995785;28;20256;-25
2024/03/19 09:58:49;;;;;;;6.30;5.70;;;;;;;19.72;53.72;97786.91;4976212;28;20210;-27
2024/03/19 10:01:16;;;;;;;6.90;6.20;;;;;;;19.74;53.73;97781.84;4976231;28;20253;-28
2024/03/19 10:03:42;;;;;;;6.60;5.90;;;;;;;19.74;53.57;97782.75;4995987;28;20226;-27
2024/03/19 10:06:11;;;;;;;6.43;5.73;;;;;;;19.72;53.51;97779.25;4995887;28;20202;-28
2024/03/19 10:08:43;;;;;;;6.23;5.63;;;;;;;19.74;53.78;97777.63;4964577;28;20214;-27
2024/03/19 10:11:08;;;;;;;6.50;5.67;;;;;;;19.72;53.76;97765.66;4998096;28;20590;-28
2024/03/19 10:13:34;;;;;;;8.60;5.90;;;;;;;19.74;53.46;97777.63;5001678;28;20265;-28
2024/03/19 10:15:59;;;;;;;5.80;5.07;;;;;;;19.74;53.65;97781.84;5001631;28;20306;-26
2024/03/19 10:18:25;;;;;;;6.83;5.90;;;;;;;19.74;53.71;97775.09;5000094;28;20229;-27
2024/03/19 10:20:54;;;;;;;5.60;5.10;;;;;;;19.71;53.60;97763.88;4999449;28;20195;-27
2024/03/19 10:23:20;;;;;;;6.67;5.00;;;;;;;19.74;53.72;97779.31;5007647;28;20276;-28
2024/03/19 10:25:51;;;;;;;5.50;5.00;;;;;;;19.73;53.59;97769.94;5001077;28;20197;-26
2024/03/19 10:28:18;;;;;;;5.87;5.37;;;;;;;19.71;53.62;97769.88;4975190;28;20210;-27
2024/03/19 10:30:47;;;;;;;4.97;4.47;;;;;;;19.75;53.51;97766.63;4978513;28;20745;-26
2024/03/19 10:33:12;;;;;;;5.37;4.87;;;;;;;19.69;53.63;97755.31;4999750;28;20614;-35
2024/03/19 10:35:38;;;;;;;5.27;4.77;;;;;;;19.75;53.55;97769.16;4982777;28;20194;-27
2024/03/19 10:38:04;;;;;;;5.20;4.70;;;;;;;19.75;53.72;97761.50;4962045;28;20213;-27
2024/03/19 10:40:29;;;;;;;6.53;4.73;;;;;;;19.76;53.68;97762.41;4983715;28;20245;-27
2024/03/19 10:42:55;;;;;;;4.77;4.30;;;;;;;19.71;53.46;97752.00;4982377;28;20214;-28
2024/03/19 10:45:21;;;;;;;4.60;4.20;;;;;;;19.74;53.37;97757.25;4982542;28;20237;-26
2024/03/19 10:47:49;;;;;;;4.77;4.10;;;;;;;19.76;53.53;97755.63;4999144;28;20267;-41
2024/03/19 10:50:16;;;;;;;4.63;4.23;;;;;;;19.74;53.56;97751.25;4997818;28;20234;-30
2024/03/19 10:52:53;;;;;;;4.27;3.97;;;;;;;19.77;53.58;97748.81;4966765;28;20758;-28
2024/03/19 10:55:19;;;;;;;4.70;4.13;;;;;;;19.77;53.54;97753.94;4981717;28;20228;-26
2024/03/19 10:57:45;;;;;;;4.57;4.17;;;;;;;19.77;53.59;97752.25;4998133;28;20242;-27
2024/03/19 11:00:22;;;;;;;4.53;4.07;;;;;;;19.77;53.84;97747.16;4997795;28;20210;-27
2024/03/19 11:02:49;;;;;;;4.40;4.00;;;;;;;19.75;53.65;97738.56;4996598;28;20210;-28
2024/03/19 11:05:19;;;;;;;4.33;3.90;;;;;;;19.78;53.67;97742.94;4999453;28;20270;-27
2024/03/19 11:07:45;;;;;;;4.60;4.20;;;;;;;19.78;53.57;97735.28;4998293;28;20206;-29
2024/03/19 11:10:26;;;;;;;4.20;3.67;;;;;;;19.78;53.77;97741.22;4999169;28;20238;-28
2024/03/19 11:13:15;;;;;;;4.23;3.83;;;;;;;19.78;53.51;97742.94;4998320;28;20629;-28
2024/03/19 11:15:42;;;;;;;3.87;3.57;;;;;;;19.78;53.66;97737.84;4998263;28;20202;-28
2024/03/19 11:18:13;;;;;;;5.47;3.90;;;;;;;19.77;53.71;97736.97;4998879;28;20216;-27
2024/03/19 11:20:47;;;;;;;3.50;3.20;;;;;;;19.76;53.64;97727.56;4997905;28;20269;-27
2024/03/19 11:23:22;;;;;;;4.20;3.80;;;;;;;19.78;53.68;97725.94;4998277;28;20226;-26
2024/03/19 11:25:49;;;;;;;3.90;3.50;;;;;;;19.73;53.54;97721.47;4998450;28;20218;-27
2024/03/19 11:28:42;;;;;;;3.83;3.53;;;;;;;19.77;53.78;97726.75;4998127;28;20206;-27